Time;durP1;ratioP1;P1;durP2;ratioP2;P2;SDS_P1;SDS_P2;PMS_P1;PMS_P2;Temp;Humidity;BMP_temperature;BMP_pressure;BME280_temperature;BME280_humidity;BME280_pressure;Samples;Min_cycle;Max_cycle;Signal;HPM_P1;HPM_P2
2022/02/06 00:00:53;;;;;;;30.00;10.50;;;7.00;99.90;;;;;;5038138;28;20037;-79
2022/02/06 00:03:20;;;;;;;27.50;10.50;;;7.00;99.90;;;;;;5022519;28;20083;-79
2022/02/06 00:05:49;;;;;;;32.23;12.27;;;6.90;99.90;;;;;;5055839;28;20172;-87
2022/02/06 00:08:15;;;;;;;36.03;10.10;;;7.00;99.90;;;;;;5055307;28;20024;-82
2022/02/06 00:10:41;;;;;;;27.80;10.87;;;7.00;99.90;;;;;;5037865;28;20029;-80
2022/02/06 00:13:07;;;;;;;25.40;10.23;;;7.00;99.90;;;;;;5037952;28;20377;-83
2022/02/06 00:15:32;;;;;;;26.77;10.50;;;7.00;99.90;;;;;;5037878;28;20024;-80
2022/02/06 00:17:58;;;;;;;33.00;10.80;;;7.00;99.90;;;;;;5021280;28;20108;-84
2022/02/06 00:20:30;;;;;;;31.60;11.50;;;7.10;99.90;;;;;;5037689;28;20032;-79
2022/02/06 00:22:59;;;;;;;21.53;10.13;;;7.00;99.90;;;;;;5037659;28;20017;-82
2022/02/06 00:30:47;;;;;;;23.83;10.80;;;7.10;99.90;;;;;;5038233;28;20272;-79
2022/02/06 00:33:21;;;;;;;30.00;11.67;;;7.10;99.90;;;;;;5039748;28;20033;-80
2022/02/06 00:43:23;;;;;;;30.20;11.60;;;7.10;99.90;;;;;;5056390;28;19913;-82
2022/02/06 00:45:48;;;;;;;27.30;11.57;;;7.10;99.90;;;;;;5037390;28;20123;-82
2022/02/06 00:48:20;;;;;;;27.57;10.97;;;7.10;99.90;;;;;;5036885;28;20572;-84
2022/02/06 00:50:50;;;;;;;23.77;11.73;;;7.10;99.90;;;;;;5037216;28;20120;-79
2022/02/06 00:53:17;;;;;;;31.93;12.50;;;7.10;99.90;;;;;;5037825;28;20029;-79
2022/02/06 00:55:44;;;;;;;30.93;11.07;;;7.10;99.90;;;;;;5037086;28;20203;-80
2022/02/06 00:58:10;;;;;;;26.97;11.80;;;7.10;99.90;;;;;;5054448;28;20032;-78
2022/02/06 01:00:35;;;;;;;29.83;12.57;;;7.10;99.90;;;;;;5036904;28;20033;-79
2022/02/06 01:03:01;;;;;;;32.10;11.73;;;7.20;99.90;;;;;;5036763;28;20021;-83
2022/02/06 01:05:27;;;;;;;26.13;10.90;;;7.20;99.90;;;;;;5036800;28;20053;-84
2022/02/06 01:07:54;;;;;;;28.87;11.37;;;7.10;99.90;;;;;;5036830;28;20033;-79
2022/02/06 01:10:21;;;;;;;30.93;11.70;;;7.20;99.90;;;;;;5054637;28;20389;-80
2022/02/06 01:12:54;;;;;;;28.57;12.07;;;7.20;99.90;;;;;;5036747;28;20021;-87
2022/02/06 01:15:25;;;;;;;32.15;11.77;;;7.10;99.90;;;;;;5037993;28;20025;-82
2022/02/06 01:17:57;;;;;;;24.93;10.37;;;7.10;99.90;;;;;;5054300;28;20039;-80
2022/02/06 01:20:33;;;;;;;28.33;10.23;;;7.10;99.90;;;;;;5037582;28;20049;-79
2022/02/06 01:23:21;;;;;;;23.73;10.70;;;7.10;99.90;;;;;;5054527;28;20052;-80
2022/02/06 01:25:54;;;;;;;26.13;11.00;;;7.10;99.90;;;;;;5053545;28;20039;-85
2022/02/06 01:28:27;;;;;;;26.10;10.87;;;7.10;99.90;;;;;;5037912;28;20025;-82
2022/02/06 01:31:07;;;;;;;34.63;11.20;;;7.00;99.90;;;;;;5021211;28;20509;-79
2022/02/06 01:33:39;;;;;;;24.37;10.50;;;7.10;99.90;;;;;;5038476;28;20047;-80
2022/02/06 01:41:20;;;;;;;26.87;11.97;;;7.10;99.90;;;;;;5053861;28;20049;-85
2022/02/06 01:43:52;;;;;;;30.03;11.23;;;7.10;99.90;;;;;;5037722;28;20112;-82
2022/02/06 02:14:09;;;;;;;27.43;9.33;;;7.20;99.90;;;;;;5038433;28;20112;-81
2022/02/06 02:20:01;;;;;;;25.23;9.37;;;7.20;99.90;;;;;;5053354;28;20114;-80
2022/02/06 02:44:55;;;;;;;20.77;8.27;;;7.30;99.90;;;;;;5038069;28;20047;-81
2022/02/06 02:46:52;;;;;;;23.63;10.13;;;7.30;99.90;;;;;;5037739;28;20045;-87
2022/02/06 02:49:20;;;;;;;19.80;8.90;;;7.30;99.90;;;;;;5053115;28;20381;-79
2022/02/06 02:51:48;;;;;;;26.40;9.30;;;7.30;99.90;;;;;;5035721;28;20028;-82
2022/02/06 02:54:21;;;;;;;25.53;9.93;;;7.30;99.90;;;;;;5052828;28;20028;-83
2022/02/06 02:57:01;;;;;;;20.67;10.13;;;7.30;99.90;;;;;;5019817;28;20433;-81
2022/02/06 02:59:38;;;;;;;21.57;9.27;;;7.30;99.90;;;;;;5020504;28;20025;-80
2022/02/06 03:02:06;;;;;;;25.60;10.43;;;7.30;99.90;;;;;;5020312;28;20036;-83
2022/02/06 03:04:32;;;;;;;21.70;10.30;;;7.30;99.90;;;;;;5035524;28;20025;-80
2022/02/06 03:06:58;;;;;;;23.40;10.10;;;7.30;99.90;;;;;;5022795;28;20029;-81
2022/02/06 03:09:24;;;;;;;25.07;9.77;;;7.20;99.90;;;;;;5038979;28;20465;-82
2022/02/06 03:11:50;;;;;;;23.73;9.87;;;7.30;99.90;;;;;;5022692;28;20485;-84
2022/02/06 03:14:21;;;;;;;24.10;10.20;;;7.30;99.90;;;;;;5022218;28;20086;-79
2022/02/06 03:17:01;;;;;;;24.20;9.67;;;7.20;99.90;;;;;;5039880;28;20033;-83
2022/02/06 03:19:26;;;;;;;22.70;9.57;;;7.30;99.90;;;;;;5038923;28;20374;-81
2022/02/06 03:21:52;;;;;;;19.97;8.73;;;7.30;99.90;;;;;;5056610;28;20224;-84
2022/02/06 03:24:24;;;;;;;21.53;9.53;;;7.30;99.90;;;;;;5038735;28;20151;-79
2022/02/06 03:26:54;;;;;;;17.93;9.20;;;7.40;99.90;;;;;;5023755;28;20044;-82
2022/02/06 03:29:22;;;;;;;19.33;8.87;;;7.20;99.90;;;;;;5038866;28;20466;-84
2022/02/06 03:31:49;;;;;;;28.17;9.57;;;7.20;99.90;;;;;;5038487;28;20036;-81
2022/02/06 03:34:15;;;;;;;21.50;8.13;;;7.20;99.90;;;;;;5021679;28;20029;-85
2022/02/06 03:36:41;;;;;;;15.03;7.90;;;7.30;99.90;;;;;;5056348;28;20040;-82
2022/02/06 03:39:07;;;;;;;24.53;7.87;;;7.30;99.90;;;;;;5038635;28;20029;-85
2022/02/06 03:41:49;;;;;;;18.53;8.47;;;7.20;99.90;;;;;;5056234;28;20088;-80
2022/02/06 03:44:35;;;;;;;20.60;7.70;;;7.20;99.90;;;;;;5040643;28;20465;-81
2022/02/06 03:47:08;;;;;;;20.23;7.43;;;7.20;99.90;;;;;;5038414;28;20464;-80
2022/02/06 03:49:52;;;;;;;17.63;7.95;;;7.20;99.90;;;;;;5056164;28;20086;-80
2022/02/06 03:52:19;;;;;;;14.68;7.45;;;7.20;99.90;;;;;;5024359;28;20107;-83
2022/02/06 03:54:45;;;;;;;26.27;8.43;;;7.20;99.90;;;;;;5055968;28;20025;-80
2022/02/06 03:57:11;;;;;;;19.50;7.30;;;7.20;99.90;;;;;;5021884;28;20027;-84
2022/02/06 03:59:36;;;;;;;18.43;7.77;;;7.30;99.90;;;;;;5021486;28;20052;-83
2022/02/06 04:02:04;;;;;;;15.27;6.73;;;7.20;99.90;;;;;;5056025;28;20082;-80
2022/02/06 04:04:30;;;;;;;21.13;7.67;;;7.20;99.90;;;;;;5037814;28;20086;-81
2022/02/06 04:07:02;;;;;;;26.20;9.10;;;7.20;99.90;;;;;;5056006;28;20407;-79
2022/02/06 04:09:34;;;;;;;17.43;7.73;;;7.20;99.90;;;;;;5039010;28;20386;-81
2022/02/06 04:12:02;;;;;;;14.97;7.13;;;7.20;99.90;;;;;;5038994;28;20128;-80
2022/02/06 04:14:31;;;;;;;23.70;7.77;;;7.20;99.90;;;;;;5037863;28;20028;-81
2022/02/06 04:17:06;;;;;;;15.87;6.73;;;7.20;99.90;;;;;;5021576;28;20495;-80
2022/02/06 04:19:32;;;;;;;14.70;6.87;;;7.30;99.90;;;;;;5040561;28;20063;-82
2022/02/06 04:21:58;;;;;;;16.30;7.40;;;7.20;99.90;;;;;;5005736;28;20059;-80
2022/02/06 04:24:25;;;;;;;19.50;6.70;;;7.20;99.90;;;;;;5037913;28;20115;-82
2022/02/06 04:26:52;;;;;;;12.73;6.47;;;7.20;99.90;;;;;;5037825;28;20013;-81
2022/02/06 04:29:18;;;;;;;15.37;8.00;;;7.20;99.90;;;;;;5055380;28;20025;-80
2022/02/06 04:31:47;;;;;;;14.70;6.77;;;7.20;99.90;;;;;;5020950;28;20035;-82
2022/02/06 04:34:20;;;;;;;16.03;8.07;;;7.30;99.90;;;;;;5037868;28;20035;-80
2022/02/06 04:36:55;;;;;;;14.23;7.17;;;7.10;99.90;;;;;;5039159;28;20056;-79
2022/02/06 04:42:43;;;;;;;24.33;8.30;;;7.20;99.90;;;;;;5041076;28;20107;-79
2022/02/06 05:34:16;;;;;;;25.73;11.40;;;7.50;99.90;;;;;;5054474;28;20469;-80
2022/02/06 05:36:42;;;;;;;26.03;12.07;;;7.60;99.90;;;;;;5036241;28;20094;-80
2022/02/06 05:39:07;;;;;;;21.57;10.93;;;7.50;99.90;;;;;;5036239;28;20029;-80
2022/02/06 05:41:33;;;;;;;27.77;11.93;;;7.70;99.90;;;;;;5036053;28;20504;-84
2022/02/06 05:43:59;;;;;;;29.23;12.73;;;7.60;99.90;;;;;;5019845;28;20029;-80
2022/02/06 05:46:25;;;;;;;27.70;12.20;;;7.60;99.90;;;;;;5053669;28;20029;-81
2022/02/06 05:48:50;;;;;;;33.77;12.90;;;7.70;99.90;;;;;;5036332;28;20091;-86
2022/02/06 05:51:16;;;;;;;26.43;12.60;;;7.70;99.90;;;;;;5036080;28;20140;-79
2022/02/06 05:53:42;;;;;;;25.30;11.43;;;7.70;99.90;;;;;;5053681;28;20433;-81
2022/02/06 05:56:08;;;;;;;25.43;11.47;;;7.70;99.90;;;;;;5034946;28;20064;-85
2022/02/06 05:58:34;;;;;;;29.50;11.90;;;7.80;99.90;;;;;;5028298;28;20072;-80
2022/02/06 06:00:59;;;;;;;24.67;10.90;;;7.80;99.90;;;;;;5032855;28;20064;-79
2022/02/06 06:03:26;;;;;;;27.90;11.50;;;7.80;99.90;;;;;;5053103;28;20425;-80
2022/02/06 06:05:51;;;;;;;33.20;11.83;;;7.80;99.90;;;;;;5051469;28;20025;-78
2022/02/06 06:08:17;;;;;;;28.27;11.57;;;7.80;99.90;;;;;;5021094;28;20036;-80
2022/02/06 06:10:42;;;;;;;29.73;12.03;;;7.90;99.90;;;;;;5034297;28;20447;-81
2022/02/06 06:13:09;;;;;;;25.60;10.83;;;7.80;99.90;;;;;;5052576;28;20154;-80
2022/02/06 06:15:36;;;;;;;22.47;11.40;;;7.80;99.90;;;;;;5019130;28;20036;-81
2022/02/06 06:18:05;;;;;;;27.57;11.93;;;7.80;99.90;;;;;;5035614;28;20041;-79
2022/02/06 06:20:33;;;;;;;29.47;12.00;;;7.80;99.90;;;;;;5053107;28;20070;-82
2022/02/06 06:22:59;;;;;;;27.83;10.50;;;7.80;99.90;;;;;;5035507;28;20079;-87
2022/02/06 06:25:31;;;;;;;23.07;10.93;;;7.90;99.90;;;;;;5018930;28;20025;-80
2022/02/06 06:27:57;;;;;;;24.13;10.83;;;7.80;99.90;;;;;;5033961;28;20374;-80
2022/02/06 06:30:22;;;;;;;22.00;10.83;;;7.90;99.90;;;;;;5034633;28;20061;-80
2022/02/06 06:32:48;;;;;;;33.60;12.77;;;7.80;99.90;;;;;;5052245;28;20473;-80
2022/02/06 06:35:16;;;;;;;27.90;12.43;;;7.80;99.90;;;;;;5033628;28;20032;-80
2022/02/06 06:37:41;;;;;;;23.30;10.70;;;7.90;99.90;;;;;;5053283;28;20504;-80
2022/02/06 06:40:08;;;;;;;24.33;11.37;;;7.90;99.90;;;;;;5034802;28;20045;-83
2022/02/06 06:42:34;;;;;;;23.27;11.50;;;7.90;99.90;;;;;;5034278;28;20108;-81
2022/02/06 06:45:00;;;;;;;21.67;10.30;;;8.00;99.90;;;;;;5035331;28;20053;-80
2022/02/06 06:47:25;;;;;;;23.97;10.20;;;7.90;99.90;;;;;;5053120;28;20040;-81
2022/02/06 06:49:51;;;;;;;26.80;11.30;;;7.90;99.90;;;;;;5018725;28;20029;-80
2022/02/06 06:52:17;;;;;;;23.37;11.43;;;7.90;99.90;;;;;;5035366;28;20389;-83
2022/02/06 06:54:49;;;;;;;22.40;11.67;;;7.90;99.90;;;;;;5018763;28;20120;-80
2022/02/06 06:57:20;;;;;;;26.87;11.87;;;7.80;99.90;;;;;;5019661;28;20024;-79
2022/02/06 07:02:27;;;;;;;24.93;11.50;;;7.90;99.90;;;;;;5053156;28;20033;-80
2022/02/06 07:05:04;;;;;;;24.10;10.80;;;7.80;99.90;;;;;;5036602;28;20056;-80
2022/02/06 07:07:33;;;;;;;26.10;10.97;;;7.80;99.90;;;;;;5052899;28;20047;-80
2022/02/06 07:10:00;;;;;;;22.83;10.97;;;7.80;99.90;;;;;;5034695;28;20041;-80
2022/02/06 07:12:26;;;;;;;20.80;10.73;;;7.80;99.90;;;;;;5052739;28;20033;-79
2022/02/06 07:14:52;;;;;;;20.57;9.37;;;7.80;99.90;;;;;;5018414;28;20029;-80
2022/02/06 07:17:18;;;;;;;21.23;10.17;;;7.80;99.90;;;;;;5052782;28;20051;-81
2022/02/06 07:19:45;;;;;;;19.80;9.20;;;7.80;99.90;;;;;;5052268;28;20087;-79
2022/02/06 07:22:14;;;;;;;22.90;9.83;;;7.80;99.90;;;;;;5052783;28;20471;-79
2022/02/06 07:24:42;;;;;;;21.13;9.87;;;7.80;99.90;;;;;;5052989;28;20025;-80
2022/02/06 07:27:25;;;;;;;21.53;8.93;;;7.80;99.90;;;;;;5034957;28;20074;-79
2022/02/06 07:29:51;;;;;;;19.33;9.33;;;7.70;99.90;;;;;;5034752;28;20048;-81
2022/02/06 07:32:17;;;;;;;20.50;9.63;;;7.70;99.90;;;;;;5034975;28;20052;-80
2022/02/06 07:34:43;;;;;;;19.63;10.63;;;7.80;99.90;;;;;;5053094;28;20473;-81
2022/02/06 07:37:09;;;;;;;20.23;10.40;;;7.80;99.90;;;;;;5034765;28;20036;-79
2022/02/06 07:39:35;;;;;;;23.80;11.30;;;7.80;99.90;;;;;;5052298;28;20025;-79
2022/02/06 07:42:01;;;;;;;25.87;11.23;;;7.90;99.90;;;;;;5052602;28;20065;-81
2022/02/06 07:44:26;;;;;;;21.47;10.93;;;7.80;99.90;;;;;;5034786;28;20056;-80
2022/02/06 07:47:00;;;;;;;24.93;10.37;;;7.90;99.90;;;;;;5034747;28;20110;-80
2022/02/06 07:49:26;;;;;;;22.10;10.85;;;7.90;99.90;;;;;;5030793;28;20047;-79
2022/02/06 07:51:52;;;;;;;19.70;10.23;;;7.90;99.90;;;;;;5052039;28;20033;-79
2022/02/06 07:54:17;;;;;;;20.77;10.77;;;7.90;99.90;;;;;;5060920;28;20037;-83
2022/02/06 07:56:43;;;;;;;22.67;10.17;;;7.90;99.90;;;;;;5036750;28;20108;-79
2022/02/06 07:59:09;;;;;;;20.87;10.20;;;8.00;99.90;;;;;;5038200;28;20043;-80
2022/02/06 08:01:34;;;;;;;21.93;10.27;;;7.90;99.90;;;;;;5038173;28;20376;-80
2022/02/06 08:04:00;;;;;;;24.37;10.40;;;7.90;99.90;;;;;;5039037;28;20079;-78
2022/02/06 08:06:26;;;;;;;20.60;11.00;;;7.90;99.90;;;;;;5056281;28;20381;-84
2022/02/06 08:08:51;;;;;;;19.03;10.03;;;7.90;99.90;;;;;;5055853;28;20032;-81
2022/02/06 08:11:17;;;;;;;18.93;10.13;;;7.90;99.90;;;;;;5056005;28;20100;-85
2022/02/06 08:13:50;;;;;;;26.10;10.97;;;7.90;99.90;;;;;;5055715;28;20044;-85
2022/02/06 08:16:15;;;;;;;22.33;10.27;;;8.10;99.90;;;;;;5022452;28;20132;-84
2022/02/06 08:18:42;;;;;;;18.17;10.27;;;8.00;99.90;;;;;;5021593;28;20025;-85
2022/02/06 08:21:08;;;;;;;17.17;9.37;;;8.00;99.90;;;;;;5021299;28;20504;-82
2022/02/06 08:23:34;;;;;;;23.00;10.00;;;8.00;99.90;;;;;;5055576;28;20075;-83
2022/02/06 08:26:00;;;;;;;21.77;10.37;;;8.10;99.90;;;;;;5037806;28;20017;-84
2022/02/06 08:28:26;;;;;;;22.67;9.73;;;8.00;99.90;;;;;;5021649;28;20108;-84
2022/02/06 08:30:52;;;;;;;22.37;12.00;;;8.00;99.90;;;;;;5037701;28;20060;-81
2022/02/06 08:33:17;;;;;;;21.80;10.90;;;8.10;99.90;;;;;;5055109;28;20033;-85
2022/02/06 08:35:45;;;;;;;23.53;10.60;;;8.10;99.90;;;;;;5037825;28;20131;-80
2022/02/06 08:38:12;;;;;;;22.90;11.03;;;8.10;99.90;;;;;;5021083;28;20028;-83
2022/02/06 08:40:38;;;;;;;18.47;10.53;;;8.00;99.90;;;;;;5026032;28;20046;-84
2022/02/06 08:43:04;;;;;;;20.43;9.97;;;8.00;99.90;;;;;;5046820;28;20039;-85
2022/02/06 08:45:30;;;;;;;19.60;10.27;;;8.10;99.90;;;;;;5051031;28;20020;-81
2022/02/06 08:47:56;;;;;;;20.00;9.70;;;8.10;99.90;;;;;;5041262;28;20038;-87
2022/02/06 08:50:23;;;;;;;16.07;9.13;;;8.10;99.90;;;;;;5045583;28;20029;-87
2022/02/06 08:52:49;;;;;;;18.77;9.03;;;8.00;99.90;;;;;;5031307;28;20061;-87
2022/02/06 08:55:17;;;;;;;14.93;8.73;;;8.10;99.90;;;;;;5028145;28;20074;-83
2022/02/06 08:57:50;;;;;;;19.53;9.83;;;8.10;99.90;;;;;;5045898;28;20387;-85
2022/02/06 09:00:21;;;;;;;13.55;7.80;;;8.00;99.90;;;;;;5047782;28;20033;-84
2022/02/06 09:02:47;;;;;;;16.50;7.67;;;8.10;99.90;;;;;;5028490;28;20025;-83
2022/02/06 09:05:13;;;;;;;14.13;7.03;;;8.00;99.90;;;;;;5035103;28;20095;-84
2022/02/06 09:07:41;;;;;;;11.50;6.57;;;8.10;99.90;;;;;;5033939;28;20030;-83
2022/02/06 09:10:08;;;;;;;11.07;6.30;;;8.00;99.90;;;;;;5035019;28;20099;-84
2022/02/06 09:12:41;;;;;;;16.37;6.40;;;8.00;99.90;;;;;;5038837;28;20036;-84
2022/02/06 09:15:07;;;;;;;12.73;5.72;;;8.10;99.90;;;;;;5049642;28;20067;-85
2022/02/06 09:17:33;;;;;;;11.43;6.00;;;8.00;99.90;;;;;;5035709;28;20045;-84
2022/02/06 09:19:59;;;;;;;10.30;5.77;;;8.00;99.90;;;;;;5049686;28;20918;-84
2022/02/06 09:22:25;;;;;;;11.70;5.93;;;8.00;99.90;;;;;;5030550;28;20033;-81
2022/02/06 09:24:50;;;;;;;14.47;6.37;;;8.00;99.90;;;;;;5052335;28;20036;-83
2022/02/06 09:27:16;;;;;;;13.10;6.37;;;8.00;99.90;;;;;;5053841;28;20033;-81
2022/02/06 09:29:42;;;;;;;11.47;6.30;;;8.10;99.90;;;;;;5016722;28;20116;-80
2022/02/06 09:37:06;;;;;;;13.83;6.70;;;8.00;99.90;;;;;;5034398;28;20370;-81
2022/02/06 09:39:36;;;;;;;13.17;7.27;;;8.00;99.90;;;;;;5033199;28;20025;-83
2022/02/06 09:42:02;;;;;;;15.03;7.27;;;8.10;99.90;;;;;;5019048;28;20044;-82
2022/02/06 09:44:29;;;;;;;13.33;7.37;;;8.00;99.90;;;;;;5041930;28;20040;-82
2022/02/06 09:46:57;;;;;;;13.03;7.50;;;8.00;99.90;;;;;;5052840;28;20112;-84
2022/02/06 09:49:23;;;;;;;15.37;7.33;;;7.90;99.90;;;;;;5035984;28;20021;-80
2022/02/06 09:51:50;;;;;;;12.87;6.47;;;8.10;99.90;;;;;;5019878;28;20037;-82
2022/02/06 09:54:15;;;;;;;11.93;6.40;;;8.10;99.90;;;;;;5016433;28;20031;-83
2022/02/06 09:56:46;;;;;;;13.37;6.87;;;8.10;99.90;;;;;;5033947;28;20025;-83
2022/02/06 09:59:22;;;;;;;15.87;6.80;;;8.10;99.90;;;;;;5016354;28;20167;-84
2022/02/06 10:01:55;;;;;;;15.40;6.53;;;8.00;99.90;;;;;;5033765;28;20033;-81
2022/02/06 10:04:28;;;;;;;15.30;7.07;;;8.10;99.90;;;;;;5033169;28;20163;-85
2022/02/06 10:07:00;;;;;;;15.70;6.63;;;8.10;99.90;;;;;;5033494;28;20029;-84
2022/02/06 10:09:43;;;;;;;12.03;5.90;;;8.10;99.90;;;;;;5052026;28;20155;-85
2022/02/06 10:12:10;;;;;;;15.23;6.47;;;8.20;99.90;;;;;;5035779;28;20021;-85
2022/02/06 10:14:36;;;;;;;11.77;5.90;;;8.20;99.90;;;;;;5018810;28;20571;-84
2022/02/06 10:17:02;;;;;;;11.47;6.10;;;8.30;99.90;;;;;;5018914;28;20072;-83
2022/02/06 10:19:28;;;;;;;11.77;5.67;;;8.20;99.90;;;;;;5018549;28;20033;-82
2022/02/06 10:21:55;;;;;;;14.63;5.73;;;8.20;99.90;;;;;;5053060;28;20024;-85
2022/02/06 10:24:29;;;;;;;13.23;5.30;;;8.30;99.90;;;;;;5035736;28;20151;-85
2022/02/06 10:29:50;;;;;;;12.13;4.80;;;8.20;99.90;;;;;;5036544;28;20386;-84
2022/02/06 10:32:17;;;;;;;9.77;4.57;;;8.20;99.90;;;;;;5027039;28;20129;-84
2022/02/06 10:34:43;;;;;;;6.87;3.97;;;8.30;99.90;;;;;;5035341;28;20029;-85
2022/02/06 10:37:14;;;;;;;10.40;4.23;;;8.30;99.90;;;;;;5035883;28;20108;-81
2022/02/06 10:39:52;;;;;;;11.03;4.13;;;8.20;99.90;;;;;;5053431;28;20111;-85
2022/02/06 10:42:23;;;;;;;10.27;4.43;;;8.20;99.90;;;;;;5053115;28;20052;-84
2022/02/06 10:44:51;;;;;;;6.87;4.00;;;8.20;99.90;;;;;;5035440;28;20401;-83
2022/02/06 10:47:30;;;;;;;7.57;3.70;;;8.20;99.90;;;;;;5053251;28;20075;-83
2022/02/06 10:50:06;;;;;;;8.10;4.03;;;8.20;99.90;;;;;;5035233;28;20503;-84
2022/02/06 10:52:32;;;;;;;8.80;3.70;;;8.20;99.90;;;;;;5045221;28;20025;-83
2022/02/06 10:54:59;;;;;;;7.77;3.80;;;8.20;99.90;;;;;;5019291;28;20032;-81
2022/02/06 10:57:28;;;;;;;8.90;4.40;;;8.20;99.90;;;;;;5035757;28;20031;-83
2022/02/06 10:59:54;;;;;;;9.30;3.80;;;8.20;99.90;;;;;;5036318;28;20396;-82
2022/02/06 11:02:21;;;;;;;9.20;4.23;;;8.20;99.90;;;;;;5053117;28;20036;-85
2022/02/06 11:05:30;;;;;;;8.30;3.87;;;8.20;99.90;;;;;;5053471;28;20032;-83
2022/02/06 11:08:02;;;;;;;9.47;3.40;;;8.20;99.90;;;;;;5035271;28;20033;-81
2022/02/06 11:10:30;;;;;;;7.23;3.40;;;8.20;99.90;;;;;;5035230;28;20021;-84
2022/02/06 11:13:03;;;;;;;7.30;3.77;;;8.20;99.90;;;;;;5053019;28;20021;-80
2022/02/06 11:15:32;;;;;;;6.70;3.20;;;8.10;99.90;;;;;;5035235;28;20021;-84
2022/02/06 11:18:03;;;;;;;4.77;2.33;;;8.20;99.90;;;;;;5052995;28;20480;-83
2022/02/06 11:20:28;;;;;;;4.33;1.60;;;8.20;99.90;;;;;;5034823;28;20021;-83
2022/02/06 11:22:58;;;;;;;3.33;1.50;;;8.20;99.90;;;;;;5034995;28;20032;-84
2022/02/06 11:25:28;;;;;;;2.97;1.33;;;8.20;99.90;;;;;;5019920;28;20021;-76
2022/02/06 11:27:55;;;;;;;1.93;0.90;;;8.20;99.90;;;;;;5022500;28;20116;-76
2022/02/06 11:30:20;;;;;;;1.80;0.80;;;8.20;99.90;;;;;;5038668;28;20033;-76
2022/02/06 11:32:46;;;;;;;1.37;0.63;;;8.20;99.90;;;;;;5039162;28;20079;-77
2022/02/06 11:35:16;;;;;;;1.57;0.60;;;8.30;99.90;;;;;;5038975;28;20029;-76
2022/02/06 11:43:50;;;;;;;1.03;0.47;;;8.30;99.90;;;;;;5057801;28;20551;-76
2022/02/06 11:46:28;;;;;;;2.43;0.60;;;8.30;99.90;;;;;;5038202;28;20036;-76
2022/02/06 11:49:15;;;;;;;0.70;0.30;;;8.30;99.90;;;;;;5055759;28;20449;-76
2022/02/06 11:51:56;;;;;;;1.93;0.53;;;8.30;99.90;;;;;;5033484;28;20361;-77
2022/02/06 11:54:31;;;;;;;0.90;0.40;;;8.30;99.90;;;;;;5038509;28;20040;-76
2022/02/06 11:57:18;;;;;;;0.60;0.30;;;8.10;99.90;;;;;;5038384;28;20393;-77
2022/02/06 12:00:08;;;;;;;0.50;0.30;;;7.90;99.90;;;;;;5036496;28;20351;-76
2022/02/06 12:02:39;;;;;;;1.63;0.30;;;7.70;99.90;;;;;;5036325;28;20029;-76
2022/02/06 12:05:28;;;;;;;1.03;0.20;;;7.50;99.90;;;;;;5036617;28;20355;-76
2022/02/06 12:08:10;;;;;;;0.63;0.20;;;7.40;99.90;;;;;;5027538;28;20021;-76
2022/02/06 12:10:35;;;;;;;0.40;0.10;;;7.20;99.90;;;;;;5056192;28;20079;-76
2022/02/06 12:15:50;;;;;;;0.38;0.10;;;6.90;99.90;;;;;;5076617;28;20028;-76
2022/02/06 12:18:28;;;;;;;0.23;0.20;;;6.90;99.90;;;;;;5046653;28;20414;-76
2022/02/06 12:21:15;;;;;;;0.30;0.10;;;6.60;99.90;;;;;;5056184;28;20029;-76
2022/02/06 12:23:44;;;;;;;0.20;0.10;;;6.50;99.90;;;;;;5057404;28;20440;-76
2022/02/06 12:29:19;;;;;;;0.10;0.10;;;6.50;99.90;;;;;;5056855;28;20021;-76
2022/02/06 12:31:48;;;;;;;0.87;0.10;;;6.50;99.90;;;;;;5055938;28;20033;-77
2022/02/06 12:36:55;;;;;;;0.10;0.10;;;6.40;99.90;;;;;;5037756;28;20037;-76
2022/02/06 12:37:28;;;;;;;0.10;0.10;;;6.40;99.90;;;;;;5054634;28;20029;-76
2022/02/06 12:39:57;;;;;;;0.10;0.10;;;6.40;99.90;;;;;;5038130;28;20037;-77
2022/02/06 12:42:28;;;;;;;0.17;0.10;;;6.40;99.90;;;;;;5037445;28;20187;-76
2022/02/06 12:44:56;;;;;;;0.20;0.10;;;6.40;99.90;;;;;;5055848;28;20045;-76
2022/02/06 12:47:22;;;;;;;0.10;0.10;;;6.40;99.90;;;;;;5055782;28;20032;-76
2022/02/06 12:49:48;;;;;;;0.10;0.10;;;6.40;99.90;;;;;;5053893;28;20395;-76
2022/02/06 12:52:14;;;;;;;0.17;0.10;;;6.40;99.90;;;;;;5075378;28;20056;-77
2022/02/06 12:54:40;;;;;;;0.20;0.10;;;6.40;99.90;;;;;;5075146;28;20040;-76
2022/02/06 12:57:06;;;;;;;0.23;0.10;;;6.40;99.90;;;;;;5040920;28;20028;-77
2022/02/06 12:59:33;;;;;;;0.07;0.07;;;6.40;99.90;;;;;;5040802;28;20035;-77
2022/02/06 13:02:00;;;;;;;0.10;0.10;;;6.40;99.90;;;;;;5075185;28;20078;-77
2022/02/06 13:04:29;;;;;;;0.00;0.00;;;6.50;99.90;;;;;;5056795;28;20079;-77
2022/02/06 13:07:00;;;;;;;0.10;0.10;;;6.50;99.90;;;;;;5037846;28;20108;-78
2022/02/06 13:09:30;;;;;;;0.10;0.10;;;6.40;99.90;;;;;;5021426;28;20032;-77
2022/02/06 13:15:07;;;;;;;0.10;0.10;;;6.60;99.90;;;;;;5054757;28;20021;-77
2022/02/06 13:23:13;;;;;;;0.10;0.10;;;6.60;99.90;;;;;;5054869;28;20057;-83
2022/02/06 13:38:34;;;;;;;0.10;0.10;;;6.80;99.90;;;;;;5054295;28;20029;-76
2022/02/06 13:41:01;;;;;;;0.20;0.10;;;6.80;99.90;;;;;;5054251;28;20135;-76
2022/02/06 13:43:39;;;;;;;0.10;0.10;;;6.90;99.90;;;;;;5040816;28;20033;-76
2022/02/06 13:46:23;;;;;;;0.10;0.10;;;6.90;99.90;;;;;;5074152;28;20020;-78
2022/02/06 13:48:50;;;;;;;0.20;0.10;;;6.90;99.90;;;;;;5055795;28;20037;-80
2022/02/06 13:51:17;;;;;;;0.40;0.10;;;7.00;99.90;;;;;;5056122;28;20047;-82
2022/02/06 13:53:56;;;;;;;0.47;0.10;;;6.90;99.90;;;;;;5074380;28;20033;-80
2022/02/06 13:56:21;;;;;;;0.10;0.10;;;7.00;99.90;;;;;;5074186;28;20047;-81
2022/02/06 13:59:19;;;;;;;0.30;0.10;;;7.10;99.90;;;;;;5074027;28;20472;-79
2022/02/06 14:01:47;;;;;;;0.83;0.10;;;7.00;99.90;;;;;;5054359;28;20117;-79
2022/02/06 14:04:24;;;;;;;0.13;0.10;;;7.00;99.90;;;;;;5065398;28;20025;-81
2022/02/06 14:06:59;;;;;;;0.20;0.10;;;7.10;99.90;;;;;;5053793;28;20033;-76
2022/02/06 14:09:32;;;;;;;1.53;0.10;;;7.20;99.90;;;;;;5053555;28;20028;-76
2022/02/06 14:11:59;;;;;;;0.28;0.10;;;7.10;99.90;;;;;;5048437;28;20037;-76
2022/02/06 14:14:26;;;;;;;0.20;0.10;;;7.20;99.90;;;;;;5053937;28;20025;-76
2022/02/06 14:16:56;;;;;;;0.10;0.10;;;7.20;99.90;;;;;;5042492;28;20384;-76
2022/02/06 14:19:44;;;;;;;0.10;0.10;;;7.20;99.90;;;;;;5047867;28;20083;-77
2022/02/06 14:22:24;;;;;;;0.10;0.10;;;7.20;99.90;;;;;;5041484;28;20041;-77
2022/02/06 14:24:57;;;;;;;0.30;0.10;;;7.20;99.90;;;;;;5036950;28;20029;-83
2022/02/06 14:27:41;;;;;;;1.30;0.10;;;7.30;99.90;;;;;;5051967;28;20112;-85
2022/02/06 14:30:10;;;;;;;;;;;7.30;99.90;;;;;;5049710;28;20045;-81
2022/02/06 14:32:56;;;;;;;0.67;0.10;;;7.30;99.90;;;;;;5054454;28;19912;-82
2022/02/06 14:35:24;;;;;;;0.50;0.20;;;7.30;99.90;;;;;;5053596;28;20029;-83
2022/02/06 14:38:00;;;;;;;0.87;0.10;;;7.30;99.90;;;;;;5035464;28;20056;-82
2022/02/06 14:43:17;;;;;;;0.20;0.10;;;7.40;99.90;;;;;;5052580;28;20044;-81
2022/02/06 14:45:55;;;;;;;1.90;0.20;;;7.40;99.90;;;;;;5035357;28;20037;-80
2022/02/06 14:48:23;;;;;;;0.73;0.20;;;7.40;99.90;;;;;;5035584;28;20041;-80
2022/02/06 14:50:50;;;;;;;0.43;0.13;;;7.50;99.90;;;;;;5048450;28;20040;-76
2022/02/06 14:53:23;;;;;;;0.40;0.10;;;7.50;99.90;;;;;;5035172;28;20029;-75
2022/02/06 14:55:51;;;;;;;0.20;0.20;;;7.50;99.90;;;;;;5045163;28;20029;-75
2022/02/06 14:58:18;;;;;;;0.30;0.10;;;7.60;99.90;;;;;;5039722;28;20518;-84
2022/02/06 15:00:44;;;;;;;0.20;0.10;;;7.80;99.90;;;;;;5053496;28;20503;-81
2022/02/06 15:03:11;;;;;;;1.07;0.20;;;7.90;99.90;;;;;;5039830;28;20032;-80
2022/02/06 15:05:40;;;;;;;0.23;0.10;;;8.00;99.90;;;;;;5046874;28;20037;-75
2022/02/06 15:08:08;;;;;;;0.37;0.20;;;8.00;99.90;;;;;;5054811;28;20040;-75
2022/02/06 15:10:35;;;;;;;0.20;0.20;;;8.00;99.90;;;;;;5046487;28;20064;-80
2022/02/06 15:13:19;;;;;;;0.53;0.10;;;7.90;99.90;;;;;;5033245;28;20086;-76
2022/02/06 15:16:30;;;;;;;0.43;0.20;;;7.90;99.90;;;;;;5057073;28;20041;-76
2022/02/06 15:18:36;;;;;;;1.23;0.20;;;7.80;99.90;;;;;;5044949;28;20558;-75
2022/02/06 15:21:14;;;;;;;3.03;0.20;;;7.90;99.90;;;;;;5055665;28;20136;-75
2022/02/06 15:23:41;;;;;;;0.40;0.10;;;7.90;99.90;;;;;;5057031;28;20055;-76
2022/02/06 15:26:07;;;;;;;0.40;0.20;;;7.90;99.90;;;;;;5056335;28;20086;-76
2022/02/06 15:28:33;;;;;;;0.20;0.10;;;7.90;99.90;;;;;;5055262;28;20079;-77
2022/02/06 15:30:59;;;;;;;0.20;0.10;;;7.90;99.90;;;;;;5034497;28;20029;-76
2022/02/06 15:33:25;;;;;;;0.60;0.20;;;7.90;99.90;;;;;;5034369;28;20033;-75
2022/02/06 15:35:51;;;;;;;1.03;0.10;;;7.90;99.90;;;;;;5034071;28;20029;-83
2022/02/06 15:38:20;;;;;;;0.40;0.10;;;8.00;99.90;;;;;;5056692;28;20134;-82
2022/02/06 15:40:47;;;;;;;1.53;0.10;;;7.90;99.90;;;;;;5056002;28;20029;-83
2022/02/06 15:43:12;;;;;;;0.33;0.13;;;7.80;99.90;;;;;;5056320;28;20045;-81
2022/02/06 15:45:39;;;;;;;0.50;0.17;;;7.80;99.90;;;;;;5048306;28;20103;-75
2022/02/06 15:48:07;;;;;;;2.10;0.20;;;7.70;99.90;;;;;;5021679;28;20075;-77
2022/02/06 15:50:33;;;;;;;0.73;0.20;;;7.70;99.90;;;;;;5047942;28;20473;-76